Time;durP1;ratioP1;P1;durP2;ratioP2;P2;SDS_P1;SDS_P2;PMS_P1;PMS_P2;Temp;Humidity;BMP_temperature;BMP_pressure;BME280_temperature;BME280_humidity;BME280_pressure;Samples;Min_cycle;Max_cycle;Signal;HPM_P1;HPM_P2
2024/01/30 00:00:16;;;;;;;4.77;3.20;;;;;20.00;101609.00;;;;2060830;28;20214;-60
2024/01/30 00:01:16;;;;;;;4.70;3.60;;;;;20.00;101605.00;;;;2060663;28;20570;-60
2024/01/30 00:02:17;;;;;;;4.20;3.20;;;;;20.00;101604.00;;;;2061035;28;20261;-60
2024/01/30 00:03:18;;;;;;;4.00;2.90;;;;;20.00;101608.00;;;;2061339;28;20230;-61
2024/01/30 00:04:18;;;;;;;4.17;3.17;;;;;20.00;101613.00;;;;2050259;28;20219;-60
2024/01/30 00:05:19;;;;;;;5.57;2.77;;;;;20.00;101608.00;;;;2059644;28;20840;-60
2024/01/30 00:06:20;;;;;;;5.23;3.43;;;;;20.00;101609.00;;;;2061241;28;20433;-61
2024/01/30 00:07:21;;;;;;;4.78;3.70;;;;;20.00;101620.00;;;;2060466;28;20219;-60
2024/01/30 00:08:21;;;;;;;4.40;3.23;;;;;20.00;101603.00;;;;2060923;28;20214;-60
2024/01/30 00:09:21;;;;;;;4.87;3.30;;;;;20.00;101613.00;;;;2050175;28;20438;-60
2024/01/30 00:10:22;;;;;;;4.20;3.00;;;;;20.00;101613.00;;;;2060584;28;20222;-60
2024/01/30 00:11:23;;;;;;;4.20;3.07;;;;;20.00;101612.00;;;;2060324;28;20234;-60
2024/01/30 00:12:23;;;;;;;5.60;2.73;;;;;20.00;101607.00;;;;2061265;28;20223;-60
2024/01/30 00:13:23;;;;;;;3.90;2.93;;;;;19.50;101603.00;;;;2061446;28;20215;-61
2024/01/30 00:14:24;;;;;;;4.00;3.07;;;;;20.00;101603.00;;;;2050594;28;20250;-61
2024/01/30 00:15:24;;;;;;;4.43;3.00;;;;;20.00;101601.00;;;;2059768;28;20210;-60
2024/01/30 00:16:25;;;;;;;3.70;2.87;;;;;19.90;101603.00;;;;2058380;28;20706;-60
2024/01/30 00:17:26;;;;;;;4.03;3.03;;;;;19.90;101602.00;;;;2061264;28;20683;-60
2024/01/30 00:18:26;;;;;;;4.25;3.05;;;;;19.90;101602.00;;;;2060638;28;20228;-60
2024/01/30 00:19:26;;;;;;;5.03;3.57;;;;;20.00;101600.00;;;;2051390;28;20298;-60
2024/01/30 00:20:27;;;;;;;4.00;2.80;;;;;19.90;101600.00;;;;2059684;28;20211;-60
2024/01/30 00:21:27;;;;;;;3.80;2.70;;;;;20.00;101602.00;;;;2060514;28;20346;-60
2024/01/30 00:22:30;;;;;;;5.70;3.00;;;;;20.00;101603.00;;;;2059751;28;20334;-60
2024/01/30 00:23:30;;;;;;;4.82;3.03;;;;;20.00;101604.00;;;;2060135;28;20211;-60
2024/01/30 00:24:30;;;;;;;4.83;3.53;;;;;19.90;101595.00;;;;2045260;28;20242;-60
2024/01/30 00:25:33;;;;;;;4.77;3.20;;;;;19.90;101598.00;;;;2051680;28;20227;-60
2024/01/30 00:26:33;;;;;;;4.28;3.20;;;;;20.00;101593.00;;;;2052697;28;20215;-60
2024/01/30 00:27:33;;;;;;;4.23;3.30;;;;;20.00;101593.00;;;;2060867;28;20203;-60
2024/01/30 00:28:34;;;;;;;3.63;2.93;;;;;20.00;101594.00;;;;2060692;28;20317;-60
2024/01/30 00:29:34;;;;;;;5.53;2.73;;;;;20.00;101579.00;;;;2050453;28;20227;-60
2024/01/30 00:30:34;;;;;;;4.53;3.30;;;;;20.00;101583.00;;;;2060083;28;20285;-60
2024/01/30 00:31:35;;;;;;;4.33;3.20;;;;;19.90;101597.00;;;;2059141;28;21816;-61
2024/01/30 00:32:35;;;;;;;3.70;2.67;;;;;20.00;101589.00;;;;2060381;28;20230;-60
2024/01/30 00:33:35;;;;;;;4.50;3.20;;;;;19.90;101587.00;;;;2060966;28;20218;-60
2024/01/30 00:34:36;;;;;;;4.27;2.97;;;;;19.90;101591.00;;;;2049555;28;20238;-60
2024/01/30 00:35:36;;;;;;;4.20;3.13;;;;;19.90;101580.00;;;;2056843;28;20223;-60
2024/01/30 00:36:37;;;;;;;5.20;3.37;;;;;19.90;101594.00;;;;2060885;28;20230;-60
2024/01/30 00:37:37;;;;;;;4.30;2.90;;;;;19.90;101584.00;;;;2059865;28;20222;-60
2024/01/30 00:38:37;;;;;;;3.73;2.53;;;;;19.90;101578.00;;;;2060927;28;20222;-60
2024/01/30 00:39:38;;;;;;;3.70;2.63;;;;;19.90;101582.00;;;;2051594;28;20273;-60
2024/01/30 00:40:38;;;;;;;5.00;3.40;;;;;19.90;101589.00;;;;2065059;28;20317;-60
2024/01/30 00:41:39;;;;;;;5.20;2.87;;;;;19.90;101580.00;;;;2059345;28;20222;-60
2024/01/30 00:42:39;;;;;;;4.17;3.00;;;;;19.90;101577.00;;;;2060604;28;20223;-61
2024/01/30 00:43:39;;;;;;;3.83;3.00;;;;;19.90;101581.00;;;;2055432;28;20253;-60
2024/01/30 00:44:40;;;;;;;4.73;3.07;;;;;19.90;101574.00;;;;2053773;28;20223;-61
2024/01/30 00:45:40;;;;;;;4.27;3.30;;;;;19.90;101573.00;;;;2060921;28;20214;-60
2024/01/30 00:46:40;;;;;;;4.50;3.20;;;;;19.90;101577.00;;;;2056230;28;20239;-60
2024/01/30 00:47:41;;;;;;;3.90;2.80;;;;;19.90;101572.00;;;;2055271;28;20233;-60
2024/01/30 00:48:41;;;;;;;4.27;3.10;;;;;19.90;101582.00;;;;2041807;28;20223;-60
2024/01/30 00:49:42;;;;;;;5.30;3.30;;;;;19.90;101575.00;;;;2051865;28;20271;-61
2024/01/30 00:50:42;;;;;;;4.27;3.03;;;;;19.90;101574.00;;;;2060518;28;20222;-60
2024/01/30 00:51:42;;;;;;;3.80;2.90;;;;;19.90;101576.00;;;;2058709;28;20650;-60
2024/01/30 00:52:44;;;;;;;4.13;2.90;;;;;19.90;101582.00;;;;2060832;28;20354;-60
2024/01/30 00:53:45;;;;;;;3.60;2.75;;;;;19.90;101573.00;;;;2050925;28;20229;-60
2024/01/30 00:54:45;;;;;;;4.23;3.10;;;;;19.90;101575.00;;;;2062727;28;20702;-60
2024/01/30 00:55:46;;;;;;;4.43;3.23;;;;;19.90;101581.00;;;;2059792;28;20747;-60
2024/01/30 00:56:46;;;;;;;4.50;3.17;;;;;19.90;101572.00;;;;2060643;28;20683;-61
2024/01/30 00:57:47;;;;;;;4.00;3.00;;;;;19.90;101573.00;;;;2060791;28;20702;-60
2024/01/30 00:58:47;;;;;;;4.30;2.80;;;;;19.90;101577.00;;;;2050626;28;20301;-60
2024/01/30 00:59:47;;;;;;;4.50;3.00;;;;;19.90;101580.00;;;;2060457;28;20462;-60
2024/01/30 01:00:48;;;;;;;4.17;2.80;;;;;19.90;101622.00;;;;2060135;28;20226;-61
2024/01/30 01:01:48;;;;;;;4.00;2.70;;;;;19.90;101576.00;;;;2060050;28;20750;-62
2024/01/30 01:02:48;;;;;;;4.40;3.07;;;;;19.90;101568.00;;;;2057693;28;20687;-61
2024/01/30 01:03:49;;;;;;;3.80;2.87;;;;;19.90;101573.00;;;;2050390;28;20215;-61
2024/01/30 01:04:49;;;;;;;3.70;2.70;;;;;19.90;101571.00;;;;2059011;28;20649;-60
2024/01/30 01:05:50;;;;;;;3.30;2.63;;;;;19.90;101577.00;;;;2056488;28;20361;-60
2024/01/30 01:06:50;;;;;;;3.73;2.83;;;;;19.90;101576.00;;;;2056088;28;20223;-60
2024/01/30 01:07:51;;;;;;;3.80;2.80;;;;;19.90;101573.00;;;;2059879;28;20217;-60
2024/01/30 01:08:51;;;;;;;3.50;2.80;;;;;19.90;101579.00;;;;2052026;28;20234;-60
2024/01/30 01:09:51;;;;;;;4.50;3.00;;;;;19.90;101573.00;;;;2061748;28;20341;-60
2024/01/30 01:10:52;;;;;;;4.37;3.13;;;;;19.90;101570.00;;;;2062397;28;20222;-60
2024/01/30 01:11:52;;;;;;;4.13;2.90;;;;;19.90;101578.00;;;;2059701;28;20226;-60
2024/01/30 01:12:52;;;;;;;4.80;3.27;;;;;19.90;101573.00;;;;2058866;28;20220;-60
2024/01/30 01:13:53;;;;;;;4.30;2.90;;;;;19.90;101576.00;;;;2048887;28;20286;-61
2024/01/30 01:14:53;;;;;;;4.17;2.90;;;;;19.90;101586.00;;;;2060006;28;20214;-60
2024/01/30 01:15:53;;;;;;;3.53;3.07;;;;;19.90;101578.00;;;;2062290;28;20218;-60
2024/01/30 01:16:53;;;;;;;4.50;3.30;;;;;19.90;101587.00;;;;2061250;28;20298;-60
2024/01/30 01:17:54;;;;;;;3.90;2.67;;;;;19.90;101581.00;;;;2051116;28;20676;-60
2024/01/30 01:18:54;;;;;;;3.83;3.00;;;;;19.90;101573.00;;;;2043798;28;20935;-60
2024/01/30 01:19:55;;;;;;;4.43;3.17;;;;;19.90;101577.00;;;;2053046;28;22068;-62
2024/01/30 01:20:55;;;;;;;4.40;2.50;;;;;19.80;101583.00;;;;2052129;28;20212;-61
2024/01/30 01:21:56;;;;;;;3.57;2.70;;;;;19.90;101579.00;;;;2061627;28;20207;-61
2024/01/30 01:22:56;;;;;;;3.63;2.60;;;;;19.90;101576.00;;;;2061923;28;20289;-60
2024/01/30 01:23:56;;;;;;;6.80;3.43;;;;;19.80;101575.00;;;;2050092;28;20210;-60
2024/01/30 01:24:57;;;;;;;4.30;3.10;;;;;19.90;101578.00;;;;2064554;28;20214;-60
2024/01/30 01:25:59;;;;;;;3.60;2.60;;;;;19.90;101585.00;;;;2064505;28;20610;-60
2024/01/30 01:26:59;;;;;;;4.95;2.70;;;;;19.90;101580.00;;;;2061767;28;20211;-61
2024/01/30 01:28:01;;;;;;;5.13;3.27;;;;;19.90;101580.00;;;;2062021;28;20241;-60
2024/01/30 01:29:02;;;;;;;4.18;3.13;;;;;19.90;101585.00;;;;2051460;28;20231;-60
2024/01/30 01:30:05;;;;;;;3.80;2.95;;;;;19.90;101574.00;;;;2062090;28;20246;-60
2024/01/30 01:31:06;;;;;;;4.22;2.95;;;;;19.90;101575.00;;;;2062101;28;20260;-60
2024/01/30 01:32:06;;;;;;;4.13;2.70;;;;;19.90;101580.00;;;;2060060;28;20273;-60
2024/01/30 01:33:06;;;;;;;4.93;3.00;;;;;19.80;101577.00;;;;2062102;28;20211;-61
2024/01/30 01:34:07;;;;;;;3.63;2.53;;;;;19.80;101576.00;;;;2046781;28;20227;-60
2024/01/30 01:35:08;;;;;;;3.80;2.70;;;;;19.80;101574.00;;;;2059009;28;20206;-60
2024/01/30 01:36:08;;;;;;;4.40;3.03;;;;;19.90;101582.00;;;;2061568;28;20477;-60
2024/01/30 01:37:08;;;;;;;4.23;2.43;;;;;19.80;101571.00;;;;2059915;28;20378;-60
2024/01/30 01:38:09;;;;;;;4.17;2.90;;;;;19.80;101576.00;;;;2059366;28;20234;-60
2024/01/30 01:39:10;;;;;;;4.10;3.10;;;;;19.80;101574.00;;;;2050950;28;20269;-60
2024/01/30 01:40:11;;;;;;;4.00;2.75;;;;;19.80;101576.00;;;;2060386;28;20699;-60
2024/01/30 01:41:11;;;;;;;4.30;3.00;;;;;19.80;101578.00;;;;2058804;28;20222;-60
2024/01/30 01:42:11;;;;;;;3.40;2.70;;;;;19.80;101571.00;;;;2062177;28;20229;-60
2024/01/30 01:43:11;;;;;;;3.63;2.70;;;;;19.80;101573.00;;;;2061718;28;20235;-60
2024/01/30 01:44:12;;;;;;;3.77;2.87;;;;;19.80;101589.00;;;;2051133;28;20715;-60
2024/01/30 01:45:12;;;;;;;3.47;2.73;;;;;19.80;101569.00;;;;2060396;28;20628;-61
2024/01/30 01:46:12;;;;;;;3.67;2.80;;;;;19.90;101566.00;;;;2061427;28;20591;-60
2024/01/30 01:47:13;;;;;;;4.60;3.33;;;;;19.80;101571.00;;;;2053564;28;20282;-60
2024/01/30 01:48:13;;;;;;;4.30;2.40;;;;;19.80;101580.00;;;;2052514;28;20278;-60
2024/01/30 01:49:14;;;;;;;3.50;2.53;;;;;19.80;101571.00;;;;2052093;28;20750;-60
2024/01/30 01:50:18;;;;;;;3.80;2.70;;;;;19.80;101571.00;;;;2054027;28;20224;-60
2024/01/30 01:51:18;;;;;;;3.90;2.78;;;;;19.80;101565.00;;;;2044604;28;20224;-60
2024/01/30 01:52:18;;;;;;;3.77;2.60;;;;;19.80;101568.00;;;;2052146;28;20295;-61
2024/01/30 01:53:19;;;;;;;4.30;3.13;;;;;19.80;101566.00;;;;2061121;28;20219;-61
2024/01/30 01:54:19;;;;;;;4.07;2.90;;;;;19.80;101566.00;;;;2043560;28;20219;-61
2024/01/30 01:55:25;;;;;;;4.27;3.20;;;;;19.80;101560.00;;;;2050958;28;20730;-60
2024/01/30 01:56:25;;;;;;;5.10;3.25;;;;;19.80;101544.00;;;;2053309;28;20230;-62
2024/01/30 01:57:25;;;;;;;4.87;3.10;;;;;19.80;101570.00;;;;2053043;28;20211;-60
2024/01/30 01:58:28;;;;;;;4.00;2.90;;;;;19.80;101565.00;;;;2052744;28;21046;-61
2024/01/30 01:59:28;;;;;;;4.40;2.58;;;;;19.80;101565.00;;;;2043467;28;20358;-61
2024/01/30 02:00:29;;;;;;;4.00;2.57;;;;;19.80;101618.00;;;;2042260;28;20212;-60
2024/01/30 02:01:29;;;;;;;5.73;2.87;;;;;19.80;101541.00;;;;2037200;29;20713;-60
2024/01/30 02:02:34;;;;;;;3.90;3.27;;;;;19.80;101553.00;;;;2044474;28;20924;-61
2024/01/30 02:03:35;;;;;;;4.35;2.85;;;;;19.80;101557.00;;;;2044689;28;20303;-61
2024/01/30 02:04:35;;;;;;;4.07;2.73;;;;;19.80;101563.00;;;;2039490;28;20207;-60
2024/01/30 02:05:36;;;;;;;4.50;2.97;;;;;19.80;101555.00;;;;2061895;28;20211;-61
2024/01/30 02:06:36;;;;;;;3.80;2.60;;;;;19.80;101538.00;;;;2061906;28;20210;-60
2024/01/30 02:07:37;;;;;;;4.97;3.13;;;;;19.80;101555.00;;;;2043677;28;20208;-60
2024/01/30 02:08:37;;;;;;;4.27;2.90;;;;;19.80;101555.00;;;;2045356;28;20240;-60
2024/01/30 02:09:38;;;;;;;5.60;3.43;;;;;19.80;101548.00;;;;2042891;28;20400;-61
2024/01/30 02:10:38;;;;;;;4.73;3.13;;;;;19.80;101549.00;;;;2060857;28;20215;-60
2024/01/30 02:11:38;;;;;;;3.97;2.77;;;;;19.80;101558.00;;;;2053160;28;20220;-61
2024/01/30 02:12:39;;;;;;;4.63;2.97;;;;;19.80;101552.00;;;;2052848;28;20267;-60
2024/01/30 02:13:40;;;;;;;5.80;3.23;;;;;19.80;101557.00;;;;2046507;28;20741;-60
2024/01/30 02:14:47;;;;;;;3.47;2.63;;;;;19.80;101552.00;;;;2056190;28;20207;-60
2024/01/30 02:15:54;;;;;;;3.95;2.90;;;;;19.80;101559.00;;;;2061832;28;20309;-60
2024/01/30 02:16:54;;;;;;;3.90;3.05;;;;;19.80;101550.00;;;;2060025;28;20232;-60
2024/01/30 02:17:54;;;;;;;3.50;2.97;;;;;19.80;101556.00;;;;2051470;28;20226;-60
2024/01/30 02:18:55;;;;;;;3.70;2.67;;;;;19.80;101551.00;;;;2050223;28;20219;-60
2024/01/30 02:19:55;;;;;;;4.17;2.67;;;;;19.80;101548.00;;;;2061576;28;20222;-60
2024/01/30 02:20:56;;;;;;;4.50;3.20;;;;;19.80;101546.00;;;;2061119;28;20242;-60
2024/01/30 02:21:56;;;;;;;4.45;3.20;;;;;19.80;101543.00;;;;2056250;28;20214;-60
2024/01/30 02:22:57;;;;;;;3.60;2.80;;;;;19.80;101553.00;;;;2037011;29;20236;-61
2024/01/30 02:23:57;;;;;;;3.90;2.80;;;;;19.80;101544.00;;;;2027185;29;20217;-61
2024/01/30 02:24:57;;;;;;;3.57;2.73;;;;;19.80;101548.00;;;;2041426;29;20224;-60
2024/01/30 02:25:58;;;;;;;4.80;3.10;;;;;19.80;101541.00;;;;2051570;28;20277;-61
2024/01/30 02:26:58;;;;;;;6.10;3.00;;;;;19.80;101543.00;;;;2058154;28;20325;-61
2024/01/30 02:27:58;;;;;;;4.50;3.20;;;;;19.30;101541.00;;;;2060718;28;20226;-60
2024/01/30 02:28:59;;;;;;;3.30;2.43;;;;;19.70;101546.00;;;;2051617;28;20227;-60
2024/01/30 02:29:59;;;;;;;4.10;3.30;;;;;19.80;101541.00;;;;2061497;28;20330;-61
2024/01/30 02:30:59;;;;;;;4.13;3.30;;;;;19.80;101534.00;;;;2061007;28;20219;-60
2024/01/30 02:32:00;;;;;;;3.87;3.00;;;;;19.40;101539.00;;;;2060288;28;20234;-60
2024/01/30 02:33:00;;;;;;;4.80;2.90;;;;;19.80;101534.00;;;;2060727;28;20211;-61
2024/01/30 02:34:00;;;;;;;3.67;2.70;;;;;19.70;101535.00;;;;2051864;28;20718;-61
2024/01/30 02:35:00;;;;;;;3.40;2.43;;;;;19.70;101541.00;;;;2050467;28;20224;-60
2024/01/30 02:36:01;;;;;;;3.90;2.70;;;;;19.70;101540.00;;;;2047200;28;20283;-61
2024/01/30 02:37:01;;;;;;;3.60;2.83;;;;;19.70;101530.00;;;;2058315;28;20243;-60
2024/01/30 02:38:01;;;;;;;3.63;2.80;;;;;19.80;101536.00;;;;2055551;28;20219;-60
2024/01/30 02:39:02;;;;;;;4.30;3.20;;;;;19.80;101542.00;;;;2048224;28;20237;-60
2024/01/30 02:40:03;;;;;;;3.60;2.63;;;;;19.80;101534.00;;;;2060561;28;20219;-60
2024/01/30 02:41:03;;;;;;;3.73;2.70;;;;;19.80;101530.00;;;;2058061;28;20230;-61
2024/01/30 02:47:53;;;;;;;4.65;3.30;;;;;19.80;101537.00;;;;2055341;28;20227;-61
2024/01/30 02:48:54;;;;;;;3.63;2.47;;;;;19.70;101520.00;;;;2040302;28;20314;-61
2024/01/30 02:49:54;;;;;;;4.10;3.03;;;;;19.70;101526.00;;;;2052503;28;20212;-60
2024/01/30 02:50:54;;;;;;;4.43;2.80;;;;;19.70;101526.00;;;;2061064;28;20234;-60
2024/01/30 02:51:56;;;;;;;3.60;2.70;;;;;19.70;101526.00;;;;2055756;28;20392;-61
2024/01/30 02:52:56;;;;;;;3.90;2.83;;;;;19.70;101526.00;;;;2059159;28;20215;-61
2024/01/30 02:53:57;;;;;;;3.57;2.30;;;;;19.70;101524.00;;;;2051384;28;20615;-60
2024/01/30 02:54:57;;;;;;;4.10;2.90;;;;;19.70;101525.00;;;;2059556;28;20832;-61
2024/01/30 02:55:57;;;;;;;3.77;2.40;;;;;19.70;101516.00;;;;2061382;28;20647;-60
2024/01/30 02:56:58;;;;;;;4.33;2.80;;;;;19.70;101517.00;;;;2061175;28;20225;-61
2024/01/30 02:57:58;;;;;;;3.73;2.87;;;;;19.70;101516.00;;;;2061420;28;20222;-61
2024/01/30 02:58:58;;;;;;;4.57;2.90;;;;;19.70;101517.00;;;;2050927;28;20273;-60
2024/01/30 02:59:59;;;;;;;4.03;3.13;;;;;19.70;101513.00;;;;2061212;28;20235;-60
2024/01/30 03:01:00;;;;;;;3.97;2.55;;;;;19.70;101509.00;;;;2061023;28;20241;-61
2024/01/30 03:02:00;;;;;;;4.00;2.83;;;;;19.70;101513.00;;;;2060715;28;20219;-61
2024/01/30 03:03:01;;;;;;;4.07;2.90;;;;;19.70;101518.00;;;;2060317;28;20785;-61
2024/01/30 03:04:02;;;;;;;5.28;3.28;;;;;19.70;101514.00;;;;2051177;28;20238;-65
2024/01/30 03:05:03;;;;;;;3.47;2.43;;;;;19.70;101506.00;;;;2059244;28;20253;-62
2024/01/30 03:06:04;;;;;;;3.15;2.50;;;;;19.70;101501.00;;;;2061493;28;20293;-61
2024/01/30 03:07:04;;;;;;;4.00;3.03;;;;;19.70;101503.00;;;;2052334;28;20302;-60
2024/01/30 03:08:05;;;;;;;4.80;2.60;;;;;19.70;101502.00;;;;2052617;28;20231;-60
2024/01/30 03:09:05;;;;;;;4.33;2.73;;;;;19.80;101504.00;;;;2051439;28;20317;-60
2024/01/30 03:10:06;;;;;;;3.70;2.70;;;;;19.80;101506.00;;;;2063743;28;20269;-61
2024/01/30 03:11:06;;;;;;;5.10;3.10;;;;;19.80;101501.00;;;;2064276;28;20211;-60
2024/01/30 03:12:06;;;;;;;3.67;2.60;;;;;19.80;101505.00;;;;2060628;28;20242;-60
2024/01/30 03:13:07;;;;;;;3.80;2.87;;;;;19.70;101505.00;;;;2061315;28;20226;-60
2024/01/30 03:14:08;;;;;;;5.00;3.20;;;;;19.70;101509.00;;;;2051534;28;20234;-61
2024/01/30 03:15:09;;;;;;;4.65;2.92;;;;;19.70;101505.00;;;;2059264;28;20226;-61
2024/01/30 03:16:10;;;;;;;5.47;3.50;;;;;19.70;101502.00;;;;2060803;28;20219;-60
2024/01/30 03:17:10;;;;;;;3.63;2.80;;;;;19.70;101498.00;;;;2060464;28;20773;-60
2024/01/30 03:18:10;;;;;;;3.87;2.83;;;;;19.70;101501.00;;;;2052325;28;20219;-61
2024/01/30 03:19:11;;;;;;;3.87;2.70;;;;;19.70;101500.00;;;;2042570;28;20336;-61
2024/01/30 03:20:11;;;;;;;4.03;3.00;;;;;19.70;101502.00;;;;2061272;28;20219;-60
2024/01/30 03:21:11;;;;;;;4.13;2.90;;;;;19.70;101496.00;;;;2061064;28;20582;-60
2024/01/30 03:22:12;;;;;;;3.67;2.77;;;;;19.70;101508.00;;;;2060625;28;20218;-61
2024/01/30 03:23:12;;;;;;;4.80;3.20;;;;;19.70;101505.00;;;;2061370;28;20214;-61
2024/01/30 03:24:12;;;;;;;4.07;2.40;;;;;19.70;101512.00;;;;2050604;28;20238;-60
2024/01/30 03:25:13;;;;;;;3.30;2.70;;;;;19.70;101504.00;;;;2059945;28;20686;-60
2024/01/30 03:26:14;;;;;;;4.27;3.07;;;;;19.70;101504.00;;;;2061273;28;20719;-61
2024/01/30 03:27:14;;;;;;;4.55;2.90;;;;;19.70;101505.00;;;;2061131;28;20325;-60
2024/01/30 03:28:15;;;;;;;4.00;2.90;;;;;19.70;101500.00;;;;2061355;28;20254;-61
2024/01/30 03:29:15;;;;;;;4.87;3.50;;;;;19.70;101503.00;;;;2048625;28;20328;-60
2024/01/30 03:30:16;;;;;;;4.57;2.97;;;;;19.70;101497.00;;;;2060973;28;20628;-61
2024/01/30 03:31:16;;;;;;;3.80;2.80;;;;;19.70;101506.00;;;;2059730;28;20230;-60
2024/01/30 03:32:16;;;;;;;3.67;2.73;;;;;19.70;101503.00;;;;2061346;28;20303;-61
2024/01/30 03:33:16;;;;;;;3.70;2.90;;;;;19.70;101501.00;;;;2060433;28;20261;-60
2024/01/30 03:34:17;;;;;;;5.33;3.37;;;;;19.70;101502.00;;;;2048006;28;20230;-60
2024/01/30 03:35:18;;;;;;;4.47;3.07;;;;;19.70;101491.00;;;;2059826;28;20293;-60
2024/01/30 03:36:19;;;;;;;4.10;2.85;;;;;19.70;101494.00;;;;2060618;28;20223;-60
2024/01/30 03:37:20;;;;;;;3.80;2.87;;;;;19.70;101494.00;;;;2058791;28;20230;-61
2024/01/30 03:38:20;;;;;;;4.63;2.93;;;;;19.70;101499.00;;;;2060486;28;20466;-60
2024/01/30 03:39:20;;;;;;;3.63;2.63;;;;;19.70;101494.00;;;;2051188;28;20301;-61
2024/01/30 03:40:21;;;;;;;4.70;3.10;;;;;19.70;101493.00;;;;2060478;28;20218;-60
2024/01/30 03:41:21;;;;;;;4.37;2.50;;;;;19.70;101500.00;;;;2059931;28;20219;-60
2024/01/30 03:42:22;;;;;;;3.17;2.47;;;;;19.70;101495.00;;;;2061145;28;20249;-60
2024/01/30 03:43:22;;;;;;;3.90;3.20;;;;;19.70;101499.00;;;;2060476;28;20215;-60
2024/01/30 03:44:23;;;;;;;4.50;2.83;;;;;19.70;101495.00;;;;2051337;28;20493;-60
2024/01/30 03:45:23;;;;;;;3.90;2.53;;;;;19.60;101493.00;;;;2058697;28;20234;-60
2024/01/30 03:46:24;;;;;;;3.60;2.63;;;;;19.70;101493.00;;;;2061057;28;20703;-61
2024/01/30 03:47:24;;;;;;;4.37;3.00;;;;;19.70;101499.00;;;;2060534;28;21167;-60
2024/01/30 03:48:25;;;;;;;4.73;2.60;;;;;19.70;101501.00;;;;2061933;28;20482;-60
2024/01/30 03:49:25;;;;;;;3.25;2.40;;;;;19.70;101494.00;;;;2049295;28;20218;-60
2024/01/30 03:50:26;;;;;;;4.03;3.10;;;;;19.70;101490.00;;;;2060512;28;21122;-60
2024/01/30 03:51:26;;;;;;;5.90;2.73;;;;;19.70;101492.00;;;;2061076;28;20590;-60
2024/01/30 03:52:26;;;;;;;4.53;3.27;;;;;19.70;101385.00;;;;2060602;28;20214;-60
2024/01/30 03:53:27;;;;;;;4.37;3.07;;;;;19.70;101494.00;;;;2061373;28;20601;-61
2024/01/30 03:54:27;;;;;;;3.87;2.67;;;;;19.70;101483.00;;;;2048495;28;20615;-61
2024/01/30 03:55:28;;;;;;;3.60;2.57;;;;;19.70;101488.00;;;;2059196;28;20218;-60
2024/01/30 03:56:28;;;;;;;4.73;3.10;;;;;19.70;101490.00;;;;2060932;28;20889;-60
2024/01/30 03:57:29;;;;;;;4.10;2.70;;;;;19.70;101484.00;;;;2060254;28;20218;-61
2024/01/30 03:58:29;;;;;;;3.53;2.60;;;;;19.70;101488.00;;;;2060954;28;20714;-60
2024/01/30 03:59:29;;;;;;;4.70;2.80;;;;;19.70;101494.00;;;;2045077;28;20242;-61
2024/01/30 04:00:30;;;;;;;3.10;2.30;;;;;19.70;101482.00;;;;2060204;28;20218;-61
2024/01/30 04:01:30;;;;;;;4.70;3.27;;;;;19.70;101479.00;;;;2060960;28;20218;-60
2024/01/30 04:02:30;;;;;;;3.67;3.00;;;;;19.70;101482.00;;;;2058327;28;20260;-60
2024/01/30 04:03:31;;;;;;;4.50;3.07;;;;;19.70;101474.00;;;;2060823;28;20264;-60
2024/01/30 04:04:31;;;;;;;4.30;2.77;;;;;19.70;101490.00;;;;2049866;28;20231;-60
2024/01/30 04:05:31;;;;;;;4.17;2.93;;;;;19.70;101485.00;;;;2060384;28;20218;-60
2024/01/30 04:06:32;;;;;;;4.97;3.10;;;;;19.70;101474.00;;;;2060658;28;20219;-60
2024/01/30 04:07:32;;;;;;;3.20;2.47;;;;;19.60;101477.00;;;;2060719;28;20254;-60
2024/01/30 04:08:32;;;;;;;3.60;2.27;;;;;19.70;101482.00;;;;2059329;28;20679;-60
2024/01/30 04:09:33;;;;;;;4.27;3.10;;;;;19.60;101480.00;;;;2050868;28;20218;-60
2024/01/30 04:10:34;;;;;;;3.80;2.70;;;;;19.60;101520.00;;;;2057435;28;20226;-60
2024/01/30 04:11:34;;;;;;;6.20;2.83;;;;;19.60;101476.00;;;;2055379;28;20214;-61
2024/01/30 04:12:34;;;;;;;4.03;2.67;;;;;19.70;101468.00;;;;2060271;28;20219;-60
2024/01/30 04:13:35;;;;;;;4.57;3.33;;;;;19.60;101472.00;;;;2061331;28;20250;-60
2024/01/30 04:14:38;;;;;;;3.55;2.42;;;;;19.60;101467.00;;;;2044183;28;20223;-61
2024/01/30 04:15:38;;;;;;;4.32;3.05;;;;;19.60;101465.00;;;;2060624;28;20699;-61
2024/01/30 04:16:39;;;;;;;4.17;2.93;;;;;19.60;101470.00;;;;2060472;28;20312;-61
2024/01/30 04:17:39;;;;;;;4.40;3.10;;;;;19.60;101464.00;;;;2052296;28;20759;-61
2024/01/30 04:18:40;;;;;;;3.90;2.90;;;;;19.70;101471.00;;;;2054143;28;21020;-60
2024/01/30 04:19:40;;;;;;;5.30;2.90;;;;;19.70;101479.00;;;;2058314;28;20591;-60
2024/01/30 04:20:40;;;;;;;3.63;2.77;;;;;19.70;101471.00;;;;2060785;28;20598;-61
2024/01/30 04:21:41;;;;;;;5.33;2.90;;;;;19.70;101464.00;;;;2058788;28;20218;-60
2024/01/30 04:22:45;;;;;;;4.20;2.67;;;;;19.60;101468.00;;;;2060923;28;20206;-60
2024/01/30 04:23:46;;;;;;;3.40;2.45;;;;;19.70;101468.00;;;;2049426;28;20215;-60
2024/01/30 04:24:46;;;;;;;3.83;2.87;;;;;19.70;101455.00;;;;2053088;28;20254;-60
2024/01/30 04:25:47;;;;;;;3.70;2.60;;;;;19.70;101451.00;;;;2060270;28;20253;-61
2024/01/30 04:26:47;;;;;;;4.20;2.30;;;;;19.70;101460.00;;;;2056601;28;20208;-61
2024/01/30 04:27:47;;;;;;;3.87;2.67;;;;;19.70;101461.00;;;;2060899;28;20210;-61
2024/01/30 04:28:48;;;;;;;3.60;2.63;;;;;19.60;101461.00;;;;2047381;28;20596;-60
2024/01/30 04:29:48;;;;;;;3.40;2.60;;;;;19.60;101452.00;;;;2060834;28;20257;-60
2024/01/30 04:30:48;;;;;;;3.80;2.90;;;;;19.70;101461.00;;;;2060280;28;20219;-60
2024/01/30 04:31:49;;;;;;;4.97;3.20;;;;;19.60;101457.00;;;;2056977;28;20265;-61
2024/01/30 04:32:49;;;;;;;3.93;3.00;;;;;19.60;101455.00;;;;2053958;28;20303;-60
2024/01/30 04:33:49;;;;;;;4.00;3.13;;;;;19.70;101457.00;;;;2044196;28;20578;-60
2024/01/30 04:34:50;;;;;;;4.70;3.10;;;;;19.60;101462.00;;;;2059455;28;20661;-61
2024/01/30 04:35:51;;;;;;;3.47;2.63;;;;;19.60;101459.00;;;;2052417;28;20222;-59
2024/01/30 04:36:52;;;;;;;3.60;2.80;;;;;19.60;101457.00;;;;2060731;28;20234;-61
2024/01/30 04:37:53;;;;;;;3.47;2.20;;;;;19.60;101455.00;;;;2060318;28;20238;-60
2024/01/30 04:38:53;;;;;;;4.30;2.87;;;;;19.60;101449.00;;;;2048763;28;20402;-60
2024/01/30 04:39:53;;;;;;;4.53;3.03;;;;;19.60;101454.00;;;;2061083;28;20450;-61
2024/01/30 04:40:54;;;;;;;4.30;3.00;;;;;19.60;101449.00;;;;2062579;28;20217;-60
2024/01/30 04:41:54;;;;;;;3.20;2.47;;;;;19.60;101447.00;;;;2060829;28;20253;-60
2024/01/30 04:42:54;;;;;;;4.00;2.50;;;;;19.60;101369.00;;;;2061459;28;20775;-60
2024/01/30 04:43:55;;;;;;;3.70;2.30;;;;;19.60;101451.00;;;;2051251;28;20990;-60
2024/01/30 04:44:55;;;;;;;4.00;2.87;;;;;19.60;101453.00;;;;2060147;28;20227;-60
2024/01/30 04:45:55;;;;;;;4.80;3.23;;;;;19.60;101454.00;;;;2061807;28;20219;-61
2024/01/30 04:46:58;;;;;;;3.33;2.43;;;;;19.70;101451.00;;;;2059868;28;20252;-60
2024/01/30 04:47:59;;;;;;;4.25;2.75;;;;;19.60;101458.00;;;;2061190;28;20317;-60
2024/01/30 04:48:59;;;;;;;3.93;2.90;;;;;19.60;101461.00;;;;2052318;28;20691;-61
2024/01/30 04:49:59;;;;;;;3.70;2.60;;;;;19.60;101463.00;;;;2062126;28;20702;-60
2024/01/30 04:51:02;;;;;;;4.33;2.77;;;;;19.60;101462.00;;;;2061704;28;20729;-61
2024/01/30 04:52:03;;;;;;;3.75;2.70;;;;;19.60;101456.00;;;;2061771;28;20226;-61
2024/01/30 04:53:03;;;;;;;3.43;2.47;;;;;19.60;101455.00;;;;2057951;28;20457;-60
2024/01/30 04:54:04;;;;;;;3.47;2.30;;;;;19.60;101458.00;;;;2051012;28;20297;-60
2024/01/30 04:55:04;;;;;;;3.70;2.73;;;;;19.60;101455.00;;;;2060172;28;20227;-60
2024/01/30 04:56:05;;;;;;;4.43;3.10;;;;;19.60;101453.00;;;;2061419;28;20248;-61
2024/01/30 04:57:09;;;;;;;4.17;2.67;;;;;19.60;101452.00;;;;2061546;28;20590;-61
2024/01/30 04:58:09;;;;;;;5.82;3.17;;;;;19.60;101457.00;;;;2061311;28;20269;-61
2024/01/30 04:59:10;;;;;;;3.70;2.67;;;;;19.60;101455.00;;;;2051457;28;20219;-60
2024/01/30 05:00:10;;;;;;;3.47;2.60;;;;;19.60;101464.00;;;;2061727;28;20297;-60
2024/01/30 05:01:15;;;;;;;4.10;3.00;;;;;19.50;101459.00;;;;2061574;28;20251;-60
2024/01/30 05:02:15;;;;;;;3.78;2.58;;;;;19.60;101459.00;;;;2058322;28;20752;-60
2024/01/30 05:03:16;;;;;;;2.93;2.17;;;;;19.60;101458.00;;;;2058223;28;20279;-60
2024/01/30 05:04:16;;;;;;;4.80;2.83;;;;;19.60;101460.00;;;;2050935;28;20215;-60
2024/01/30 05:05:17;;;;;;;5.17;2.97;;;;;19.60;101465.00;;;;2060234;28;20715;-61